createdAt,value
2022-09-11T00:01:35.243Z,27.23
2022-09-11T00:06:41.461Z,22.67
2022-09-11T00:11:46.897Z,25.17
2022-09-11T00:16:52.900Z,23.33
2022-09-11T00:21:58.772Z,28.95
2022-09-11T00:27:04.631Z,18.52
2022-09-11T00:32:11.066Z,25.27
2022-09-11T00:37:16.691Z,20.52
2022-09-11T00:42:22.284Z,19.13
2022-09-11T00:47:28.039Z,24.40
2022-09-11T00:52:40.817Z,20.25
2022-09-11T00:57:57.810Z,23.52
2022-09-11T01:03:04.683Z,23.58
2022-09-11T01:08:11.971Z,29.55
2022-09-11T01:13:37.638Z,21.42
2022-09-11T01:19:27.528Z,24.92
2022-09-11T01:24:57.664Z,27.17
2022-09-11T01:30:11.495Z,27.38
2022-09-11T01:35:40.904Z,30.70
2022-09-11T01:40:59.144Z,29.08
2022-09-11T01:46:08.787Z,30.05
2022-09-11T01:51:21.101Z,29.10
2022-09-11T01:56:28.857Z,30.70
2022-09-11T02:01:37.044Z,23.27
2022-09-11T02:06:57.690Z,19.33
2022-09-11T02:12:08.537Z,20.08
2022-09-11T02:17:19.272Z,18.05
2022-09-11T02:22:24.841Z,18.02
2022-09-11T02:27:32.756Z,18.42
2022-09-11T02:32:39.948Z,16.88
2022-09-11T02:38:08.326Z,15.13
2022-09-11T02:43:29.273Z,13.50
2022-09-11T02:48:53.545Z,19.58
2022-09-11T02:53:59.138Z,16.02
2022-09-11T02:59:26.506Z,9.85
2022-09-11T03:04:32.932Z,10.68
2022-09-11T03:09:39.113Z,12.43
2022-09-11T03:14:54.730Z,13.63
2022-09-11T03:20:00.337Z,11.60
2022-09-11T03:25:10.823Z,12.48
2022-09-11T03:30:17.054Z,9.60
2022-09-11T03:35:28.042Z,6.05
2022-09-11T03:40:34.010Z,9.40
2022-09-11T03:45:41.184Z,9.80
2022-09-11T03:50:50.571Z,8.13
2022-09-11T03:55:56.695Z,9.10
2022-09-11T04:01:02.397Z,8.50
2022-09-11T04:11:15.758Z,7.83
2022-09-11T04:16:22.568Z,8.95
2022-09-11T04:21:34.163Z,8.77
2022-09-11T04:26:40.387Z,10.48
2022-09-11T04:32:05.450Z,5.22
2022-09-11T04:37:14.391Z,8.70
2022-09-11T04:42:19.711Z,6.40
2022-09-11T04:47:26.045Z,4.85
2022-09-11T04:57:36.798Z,5.88
2022-09-11T05:02:42.685Z,6.07
2022-09-11T05:12:53.164Z,7.30
2022-09-11T05:17:59.441Z,5.10
2022-09-11T05:23:09.176Z,3.38
2022-09-11T05:28:14.915Z,3.47
2022-09-11T05:38:25.963Z,4.67
2022-09-11T05:43:32.462Z,5.22
2022-09-11T05:48:38.941Z,5.60
2022-09-11T05:53:45.252Z,2.63
2022-09-11T05:58:54.587Z,5.70
2022-09-11T06:04:06.532Z,4.53
2022-09-11T06:19:23.402Z,5.35
2022-09-11T06:24:29.788Z,4.53
2022-09-11T06:29:35.495Z,6.25
2022-09-11T06:39:49.804Z,3.88
2022-09-11T06:45:01.262Z,7.28
2022-09-11T06:50:09.484Z,5.78
2022-09-11T06:55:36.475Z,4.35
2022-09-11T07:00:46.444Z,5.10
2022-09-11T07:05:52.270Z,5.50
2022-09-11T07:10:58.287Z,4.93
2022-09-11T07:16:04.894Z,4.22
2022-09-11T07:21:18.016Z,6.25
2022-09-11T07:26:25.660Z,5.53
2022-09-11T07:31:36.011Z,5.32
2022-09-11T07:36:42.717Z,5.10
2022-09-11T07:41:49.328Z,4.78
2022-09-11T07:47:02.597Z,8.40
2022-09-11T07:52:16.851Z,3.83
2022-09-11T07:57:29.565Z,6.80
2022-09-11T08:02:35.521Z,3.70
2022-09-11T08:07:41.303Z,5.88
2022-09-11T08:12:49.167Z,5.00
2022-09-11T08:17:55.894Z,4.10
2022-09-11T08:23:01.992Z,5.97
2022-09-11T08:28:08.276Z,5.32
2022-09-11T08:33:15.185Z,6.28
2022-09-11T08:38:20.478Z,4.45
2022-09-11T08:43:32.474Z,6.80
2022-09-11T08:48:50.977Z,5.82
2022-09-11T08:53:58.552Z,4.18
2022-09-11T08:59:10.186Z,5.60
2022-09-11T09:04:22.762Z,6.15
2022-09-11T09:09:46.495Z,7.28
2022-09-11T09:14:53.285Z,8.00
2022-09-11T09:20:14.607Z,5.15
2022-09-11T09:25:26.430Z,5.75
2022-09-11T09:30:39.600Z,6.40
2022-09-11T09:35:46.112Z,7.43
2022-09-11T09:41:14.689Z,13.80
2022-09-11T09:46:34.058Z,15.25
2022-09-11T09:51:41.269Z,14.65
2022-09-11T09:56:51.013Z,14.38
2022-09-11T10:01:57.154Z,15.60
2022-09-11T10:07:12.177Z,19.83
2022-09-11T10:12:25.946Z,19.97
2022-09-11T10:17:31.865Z,19.25
2022-09-11T10:22:37.272Z,19.35
2022-09-11T10:27:47.194Z,22.13
2022-09-11T10:32:52.867Z,24.52
2022-09-11T10:38:19.783Z,18.88
2022-09-11T10:43:27.454Z,26.30
2022-09-11T10:48:34.302Z,24.17
2022-09-11T10:53:45.450Z,23.40
2022-09-11T10:58:54.928Z,20.77
2022-09-11T11:04:00.960Z,25.35
2022-09-11T11:09:18.584Z,25.77
2022-09-11T11:14:36.416Z,26.60
2022-09-11T11:19:48.634Z,26.75
2022-09-11T11:24:57.327Z,20.88
2022-09-11T11:30:06.006Z,25.92
2022-09-11T11:35:14.661Z,24.58
2022-09-11T11:40:35.515Z,31.95
2022-09-11T11:45:44.226Z,31.23
2022-09-11T11:50:56.840Z,32.72
2022-09-11T11:56:32.480Z,34.33
2022-09-11T12:01:38.561Z,25.02
2022-09-11T12:06:44.729Z,26.13
2022-09-11T12:11:51.693Z,30.05
2022-09-11T12:16:59.042Z,30.15
2022-09-11T12:22:08.582Z,30.73
2022-09-11T12:27:34.858Z,30.23
2022-09-11T12:32:44.511Z,28.67
2022-09-11T12:38:03.302Z,30.05
2022-09-11T12:43:28.287Z,27.25
2022-09-11T12:48:41.442Z,34.80
2022-09-11T12:53:49.302Z,31.40
2022-09-11T12:59:03.596Z,35.92
2022-09-11T13:04:13.611Z,35.03
2022-09-11T13:09:23.794Z,40.85
2022-09-11T13:14:32.531Z,43.10
2022-09-11T13:19:38.949Z,41.53
2022-09-11T13:24:44.572Z,43.60
2022-09-11T13:35:03.682Z,33.40
2022-09-11T13:40:10.075Z,43.38
2022-09-11T13:45:19.484Z,43.63
2022-09-11T13:50:25.249Z,49.08
2022-09-11T13:55:31.723Z,44.70
2022-09-11T14:00:40.364Z,38.17
2022-09-11T14:05:59.044Z,31.45
2022-09-11T14:11:12.343Z,31.95
2022-09-11T14:16:18.326Z,35.22
2022-09-11T14:21:28.801Z,28.33
2022-09-11T14:26:37.257Z,38.20
2022-09-11T14:31:48.635Z,31.15
2022-09-11T14:36:55.559Z,34.47
2022-09-11T14:42:01.570Z,30.67
2022-09-11T14:47:07.426Z,39.05
2022-09-11T14:52:14.927Z,34.53
2022-09-11T14:57:22.237Z,36.70
2022-09-11T15:02:29.525Z,40.25
2022-09-11T15:07:37.051Z,39.38
2022-09-11T15:12:42.708Z,37.20
2022-09-11T15:17:50.885Z,41.25
2022-09-11T15:22:57.568Z,39.67
2022-09-11T15:28:02.891Z,39.20
2022-09-11T15:33:08.398Z,37.05
2022-09-11T15:38:15.402Z,35.17
2022-09-11T15:43:20.879Z,34.67
2022-09-11T15:48:28.498Z,35.28
2022-09-11T15:53:34.919Z,30.73
2022-09-11T15:58:43.932Z,30.25
2022-09-11T16:03:52.935Z,28.85
2022-09-11T16:08:59.679Z,34.05
2022-09-11T16:14:05.545Z,31.55
2022-09-11T16:19:11.028Z,43.70
2022-09-11T16:24:16.997Z,41.50
2022-09-11T16:29:22.921Z,33.70
2022-09-11T16:34:30.456Z,34.03
2022-09-11T16:44:41.638Z,33.92
2022-09-11T16:55:12.275Z,31.02
2022-09-11T17:00:17.581Z,33.72
2022-09-11T17:05:23.068Z,31.73
2022-09-11T17:10:28.576Z,27.23
2022-09-11T17:20:39.556Z,28.20
2022-09-11T17:25:45.719Z,27.15
2022-09-11T17:30:51.139Z,25.48
2022-09-11T17:35:56.294Z,24.35
2022-09-11T17:41:02.274Z,24.00
2022-09-11T17:46:24.872Z,19.50
2022-09-11T17:51:30.533Z,24.55
2022-09-11T18:01:40.502Z,25.05
2022-09-11T18:06:45.692Z,22.45
2022-09-11T18:11:52.192Z,24.15
2022-09-11T18:16:57.407Z,23.98
2022-09-11T18:22:03.110Z,24.90
2022-09-11T18:27:09.978Z,26.75
2022-09-11T18:32:15.292Z,25.10
2022-09-11T18:37:21.262Z,29.95
2022-09-11T18:42:27.041Z,24.77
2022-09-11T18:47:33.292Z,26.38
2022-09-11T18:52:39.385Z,27.08
2022-09-11T18:57:48.842Z,23.75
2022-09-11T19:02:57.280Z,26.95
2022-09-11T19:08:03.306Z,23.35
2022-09-11T19:13:08.557Z,26.08
2022-09-11T19:18:13.797Z,33.40
2022-09-11T19:23:19.464Z,35.38
2022-09-11T19:28:24.640Z,38.42
2022-09-11T19:33:33.077Z,36.70
2022-09-11T19:38:39.466Z,37.38
2022-09-11T19:43:45.690Z,37.55
2022-09-11T19:48:51.437Z,34.50
2022-09-11T19:54:00.786Z,38.25
2022-09-11T19:59:06.875Z,39.53
2022-09-11T20:04:13.893Z,47.45
2022-09-11T20:09:30.821Z,40.72
2022-09-11T20:14:41.870Z,44.70
2022-09-11T20:19:47.755Z,47.67
2022-09-11T20:24:53.738Z,48.65
2022-09-11T20:30:00.643Z,51.13
2022-09-11T20:35:07.124Z,47.17
2022-09-11T20:40:13.058Z,53.90
2022-09-11T20:45:18.630Z,51.38
2022-09-11T20:55:28.799Z,49.33
2022-09-11T21:00:34.170Z,52.58
2022-09-11T21:05:39.420Z,44.50
2022-09-11T21:10:44.876Z,47.55
2022-09-11T21:15:50.969Z,46.58
2022-09-11T21:20:59.058Z,50.55
2022-09-11T21:26:04.373Z,47.35
2022-09-11T21:31:10.012Z,47.58
2022-09-11T21:36:15.596Z,44.42
2022-09-11T21:41:21.175Z,50.65
2022-09-11T21:46:27.261Z,49.72
2022-09-11T21:51:32.340Z,46.25
2022-09-11T21:56:37.356Z,47.60
2022-09-11T22:01:42.794Z,43.70
2022-09-11T22:06:47.762Z,42.40
2022-09-11T22:11:54.817Z,58.53
2022-09-11T22:17:03.169Z,54.10
2022-09-11T22:22:08.474Z,48.73
2022-09-11T22:27:13.976Z,42.80
2022-09-11T22:32:19.102Z,42.78
2022-09-11T22:37:24.466Z,40.15
2022-09-11T22:42:29.854Z,44.58
2022-09-11T22:47:36.062Z,42.33
2022-09-11T22:52:41.302Z,43.05
2022-09-11T22:57:46.378Z,37.73
2022-09-11T23:02:51.417Z,40.67
2022-09-11T23:07:56.505Z,32.67
2022-09-11T23:13:01.759Z,40.33
2022-09-11T23:18:07.005Z,35.70
2022-09-11T23:23:12.334Z,30.70
2022-09-11T23:28:20.936Z,35.38
2022-09-11T23:38:32.279Z,34.03
2022-09-11T23:43:37.357Z,32.57
2022-09-11T23:48:42.761Z,33.40
